createdAt,value
2022-09-11T00:01:32.375Z,13.30
2022-09-11T00:03:59.551Z,13.30
2022-09-11T00:06:30.678Z,13.30
2022-09-11T00:09:00.250Z,13.30
2022-09-11T00:11:28.453Z,13.30
2022-09-11T00:13:56.424Z,13.30
2022-09-11T00:16:37.081Z,13.30
2022-09-11T00:19:22.345Z,13.30
2022-09-11T00:21:50.485Z,13.30
2022-09-11T00:24:17.758Z,13.30
2022-09-11T00:26:44.954Z,13.30
2022-09-11T00:29:12.066Z,13.30
2022-09-11T00:31:39.201Z,13.20
2022-09-11T00:34:07.045Z,13.20
2022-09-11T00:36:36.251Z,13.20
2022-09-11T00:39:03.522Z,13.30
2022-09-11T00:41:36.101Z,13.30
2022-09-11T00:44:06.330Z,13.30
2022-09-11T00:46:44.353Z,13.30
2022-09-11T00:49:23.463Z,13.30
2022-09-11T00:51:53.444Z,13.20
2022-09-11T00:54:21.596Z,13.20
2022-09-11T00:56:48.983Z,13.30
2022-09-11T00:59:16.003Z,13.20
2022-09-11T01:01:43.493Z,13.20
2022-09-11T01:04:10.729Z,13.20
2022-09-11T01:06:37.769Z,13.20
2022-09-11T01:09:04.804Z,13.20
2022-09-11T01:11:36.854Z,13.20
2022-09-11T01:14:09.751Z,13.20
2022-09-11T01:16:51.015Z,13.20
2022-09-11T01:19:30.198Z,13.20
2022-09-11T01:22:03.340Z,13.20
2022-09-11T01:24:49.263Z,13.20
2022-09-11T01:27:36.870Z,13.20
2022-09-11T01:30:09.558Z,13.20
2022-09-11T01:32:49.343Z,13.20
2022-09-11T01:35:18.411Z,13.20
2022-09-11T01:38:03.623Z,13.20
2022-09-11T01:40:36.692Z,13.20
2022-09-11T01:43:06.127Z,13.10
2022-09-11T01:45:34.056Z,13.20
2022-09-11T01:48:02.326Z,13.20
2022-09-11T01:50:30.891Z,13.20
2022-09-11T01:53:00.727Z,13.20
2022-09-11T01:55:29.853Z,13.20
2022-09-11T01:58:07.719Z,13.20
2022-09-11T02:00:37.459Z,13.20
2022-09-11T02:03:09.407Z,13.20
2022-09-11T02:06:12.070Z,13.20
2022-09-11T02:08:44.158Z,13.20
2022-09-11T02:11:11.852Z,13.20
2022-09-11T02:13:47.466Z,13.20
2022-09-11T02:16:16.680Z,13.20
2022-09-11T02:18:52.928Z,13.20
2022-09-11T02:21:22.253Z,13.20
2022-09-11T02:23:49.618Z,13.20
2022-09-11T02:26:16.654Z,13.20
2022-09-11T02:28:43.810Z,13.30
2022-09-11T02:31:10.885Z,13.30
2022-09-11T02:33:38.785Z,13.30
2022-09-11T02:36:12.182Z,13.30
2022-09-11T02:38:44.753Z,13.30
2022-09-11T02:41:18.118Z,13.30
2022-09-11T02:43:49.718Z,13.30
2022-09-11T02:46:32.054Z,13.30
2022-09-11T02:49:06.739Z,13.30
2022-09-11T02:51:36.967Z,13.30
2022-09-11T02:54:07.224Z,13.30
2022-09-11T02:56:40.160Z,13.20
2022-09-11T02:59:09.089Z,13.20
2022-09-11T03:01:53.131Z,13.20
2022-09-11T03:04:23.035Z,13.20
2022-09-11T03:06:52.071Z,13.20
2022-09-11T03:09:19.591Z,13.20
2022-09-11T03:11:50.094Z,13.20
2022-09-11T03:14:17.194Z,13.20
2022-09-11T03:16:44.282Z,13.20
2022-09-11T03:19:13.006Z,13.20
2022-09-11T03:21:40.038Z,13.20
2022-09-11T03:24:08.555Z,13.20
2022-09-11T03:26:36.781Z,13.20
2022-09-11T03:29:03.978Z,13.20
2022-09-11T03:31:31.802Z,13.20
2022-09-11T03:33:59.514Z,13.20
2022-09-11T03:36:26.568Z,13.30
2022-09-11T03:38:55.131Z,13.30
2022-09-11T03:41:22.244Z,13.30
2022-09-11T03:43:49.305Z,13.30
2022-09-11T03:46:17.687Z,13.30
2022-09-11T03:48:46.887Z,13.30
2022-09-11T03:51:14.791Z,13.30
2022-09-11T03:53:42.168Z,13.30
2022-09-11T03:56:10.666Z,13.30
2022-09-11T03:58:43.233Z,13.20
2022-09-11T04:01:11.038Z,13.20
2022-09-11T04:03:38.721Z,13.30
2022-09-11T04:06:06.034Z,13.30
2022-09-11T04:08:34.294Z,13.30
2022-09-11T04:11:03.770Z,13.30
2022-09-11T04:13:36.763Z,13.20
2022-09-11T04:16:07.962Z,13.20
2022-09-11T04:18:36.948Z,13.20
2022-09-11T04:21:08.256Z,13.30
2022-09-11T04:23:35.819Z,13.30
2022-09-11T04:26:03.159Z,13.30
2022-09-11T04:28:30.615Z,13.20
2022-09-11T04:31:01.775Z,13.30
2022-09-11T04:33:30.490Z,13.30
2022-09-11T04:35:58.272Z,13.30
2022-09-11T04:38:25.506Z,13.30
2022-09-11T04:40:53.172Z,13.30
2022-09-11T04:43:20.218Z,13.30
2022-09-11T04:45:47.365Z,13.30
2022-09-11T04:48:14.454Z,13.30
2022-09-11T04:50:43.274Z,13.30
2022-09-11T04:53:19.625Z,13.30
2022-09-11T04:55:47.861Z,13.30
2022-09-11T04:58:15.386Z,13.30
2022-09-11T05:00:42.609Z,13.30
2022-09-11T05:03:09.709Z,13.30
2022-09-11T05:05:36.831Z,13.30
2022-09-11T05:08:03.942Z,13.20
2022-09-11T05:10:31.522Z,13.20
2022-09-11T05:12:58.675Z,13.10
2022-09-11T05:15:26.701Z,13.10
2022-09-11T05:17:53.951Z,13.10
2022-09-11T05:20:24.252Z,13.10
2022-09-11T05:22:51.295Z,13.10
2022-09-11T05:25:18.540Z,13.10
2022-09-11T05:27:50.103Z,13.10
2022-09-11T05:30:17.363Z,13.10
2022-09-11T05:32:44.455Z,13.10
2022-09-11T05:35:11.989Z,13.10
2022-09-11T05:37:39.039Z,13.10
2022-09-11T05:40:06.531Z,13.10
2022-09-11T05:42:34.567Z,13.20
2022-09-11T05:45:01.607Z,13.20
2022-09-11T05:47:29.251Z,13.20
2022-09-11T05:49:56.595Z,13.20
2022-09-11T05:52:24.747Z,13.20
2022-09-11T05:54:53.582Z,13.30
2022-09-11T05:57:20.727Z,13.30
2022-09-11T05:59:48.675Z,13.40
2022-09-11T06:02:15.826Z,13.30
2022-09-11T06:04:48.662Z,13.40
2022-09-11T06:07:15.693Z,13.40
2022-09-11T06:09:46.743Z,13.40
2022-09-11T06:12:13.847Z,13.40
2022-09-11T06:14:44.346Z,13.40
2022-09-11T06:17:12.125Z,13.50
2022-09-11T06:19:39.236Z,13.50
2022-09-11T06:22:06.309Z,13.50
2022-09-11T06:24:37.784Z,13.60
2022-09-11T06:27:05.619Z,13.60
2022-09-11T06:29:35.291Z,13.60
2022-09-11T06:32:03.779Z,13.60
2022-09-11T06:34:32.470Z,13.60
2022-09-11T06:37:04.061Z,13.70
2022-09-11T06:39:31.281Z,13.70
2022-09-11T06:41:59.506Z,13.70
2022-09-11T06:44:30.378Z,13.80
2022-09-11T06:47:00.483Z,13.80
2022-09-11T06:49:27.569Z,13.80
2022-09-11T06:52:13.038Z,13.80
2022-09-11T06:54:44.846Z,13.80
2022-09-11T06:57:15.042Z,13.80
2022-09-11T06:59:43.066Z,13.90
2022-09-11T07:02:10.239Z,13.90
2022-09-11T07:04:38.025Z,13.80
2022-09-11T07:07:05.153Z,13.90
2022-09-11T07:09:32.673Z,13.90
2022-09-11T07:11:59.724Z,13.90
2022-09-11T07:14:27.735Z,13.80
2022-09-11T07:17:04.295Z,13.90
2022-09-11T07:19:33.568Z,14.00
2022-09-11T07:22:02.071Z,14.00
2022-09-11T07:24:30.555Z,14.00
2022-09-11T07:26:57.631Z,14.00
2022-09-11T07:29:31.438Z,14.00
2022-09-11T07:31:59.002Z,14.00
2022-09-11T07:34:27.390Z,14.00
2022-09-11T07:36:55.384Z,14.00
2022-09-11T07:39:25.330Z,14.00
2022-09-11T07:42:07.288Z,14.10
2022-09-11T07:44:34.714Z,14.10
2022-09-11T07:47:02.284Z,14.10
2022-09-11T07:49:32.417Z,14.10
2022-09-11T07:51:59.808Z,14.10
2022-09-11T07:54:36.191Z,14.10
2022-09-11T07:57:03.771Z,14.20
2022-09-11T07:59:30.971Z,14.20
2022-09-11T08:01:59.619Z,14.20
2022-09-11T08:04:26.790Z,14.20
2022-09-11T08:06:54.308Z,14.30
2022-09-11T08:09:26.355Z,14.30
2022-09-11T08:11:58.467Z,14.50
2022-09-11T08:14:26.603Z,14.60
2022-09-11T08:16:56.847Z,14.60
2022-09-11T08:19:26.402Z,14.60
2022-09-11T08:21:56.277Z,14.60
2022-09-11T08:24:24.376Z,14.70
2022-09-11T08:26:57.075Z,14.70
2022-09-11T08:29:25.833Z,14.70
2022-09-11T08:31:53.503Z,14.70
2022-09-11T08:34:22.203Z,14.80
2022-09-11T08:36:51.163Z,14.80
2022-09-11T08:39:19.145Z,14.70
2022-09-11T08:41:53.639Z,14.60
2022-09-11T08:44:30.990Z,14.50
2022-09-11T08:47:13.834Z,14.50
2022-09-11T08:49:43.347Z,14.60
2022-09-11T08:52:11.313Z,14.70
2022-09-11T08:54:39.022Z,14.80
2022-09-11T08:57:28.243Z,14.90
2022-09-11T09:00:05.512Z,15.00
2022-09-11T09:02:40.821Z,15.10
2022-09-11T09:05:10.966Z,15.10
2022-09-11T09:07:43.694Z,15.10
2022-09-11T09:10:17.392Z,15.20
2022-09-11T09:12:48.613Z,15.20
2022-09-11T09:15:29.328Z,15.30
2022-09-11T09:18:00.696Z,15.30
2022-09-11T09:20:30.298Z,15.30
2022-09-11T09:23:02.384Z,15.30
2022-09-11T09:25:30.819Z,15.30
2022-09-11T09:28:03.805Z,15.40
2022-09-11T09:30:42.263Z,15.40
2022-09-11T09:33:23.487Z,15.40
2022-09-11T09:35:50.869Z,15.40
2022-09-11T09:38:26.365Z,15.40
2022-09-11T09:41:03.602Z,15.40
2022-09-11T09:43:36.993Z,15.30
2022-09-11T09:46:06.903Z,15.30
2022-09-11T09:48:34.439Z,15.30
2022-09-11T09:51:04.113Z,15.30
2022-09-11T09:53:32.408Z,15.30
2022-09-11T09:56:00.070Z,15.40
2022-09-11T09:58:27.470Z,15.40
2022-09-11T10:00:54.510Z,15.50
2022-09-11T10:03:22.768Z,15.60
2022-09-11T10:05:54.590Z,15.70
2022-09-11T10:08:26.053Z,15.80
2022-09-11T10:10:57.989Z,15.80
2022-09-11T10:13:26.215Z,15.80
2022-09-11T10:15:53.354Z,15.80
2022-09-11T10:18:30.117Z,15.80
2022-09-11T10:21:12.425Z,15.70
2022-09-11T10:23:45.808Z,15.50
2022-09-11T10:26:24.689Z,15.40
2022-09-11T10:28:52.679Z,15.20
2022-09-11T10:31:22.405Z,15.10
2022-09-11T10:33:55.528Z,15.10
2022-09-11T10:36:27.099Z,15.10
2022-09-11T10:38:54.517Z,15.00
2022-09-11T10:41:26.091Z,15.00
2022-09-11T10:43:58.697Z,15.10
2022-09-11T10:46:28.915Z,15.10
2022-09-11T10:48:57.106Z,15.30
2022-09-11T10:51:25.069Z,15.40
2022-09-11T10:54:04.313Z,15.50
2022-09-11T10:56:32.541Z,15.60
2022-09-11T10:59:00.464Z,15.70
2022-09-11T11:01:27.557Z,15.70
2022-09-11T11:03:55.974Z,15.70
2022-09-11T11:06:33.018Z,15.70
2022-09-11T11:09:00.058Z,15.70
2022-09-11T11:11:27.425Z,15.60
2022-09-11T11:14:08.626Z,15.60
2022-09-11T11:16:39.597Z,15.60
2022-09-11T11:19:17.771Z,15.50
2022-09-11T11:21:57.156Z,15.60
2022-09-11T11:24:27.559Z,15.70
2022-09-11T11:27:06.599Z,15.70
2022-09-11T11:30:00.532Z,15.80
2022-09-11T11:32:46.916Z,15.80
2022-09-11T11:35:20.285Z,15.80
2022-09-11T11:37:48.092Z,15.80
2022-09-11T11:40:18.180Z,15.90
2022-09-11T11:42:46.999Z,15.90
2022-09-11T11:45:17.752Z,15.90
2022-09-11T11:47:44.812Z,16.00
2022-09-11T11:50:32.114Z,16.10
2022-09-11T11:53:01.986Z,16.10
2022-09-11T11:55:40.446Z,16.30
2022-09-11T11:58:22.678Z,16.30
2022-09-11T12:00:55.275Z,16.10
2022-09-11T12:03:25.347Z,16.00
2022-09-11T12:05:52.499Z,16.00
2022-09-11T12:08:19.597Z,15.80
2022-09-11T12:10:47.674Z,15.70
2022-09-11T12:13:15.578Z,15.60
2022-09-11T12:15:58.056Z,15.60
2022-09-11T12:18:25.202Z,15.70
2022-09-11T12:20:52.929Z,15.80
2022-09-11T12:23:40.187Z,15.80
2022-09-11T12:26:10.149Z,16.00
2022-09-11T12:28:37.888Z,16.20
2022-09-11T12:31:05.163Z,16.30
2022-09-11T12:33:41.258Z,16.30
2022-09-11T12:36:23.408Z,16.40
2022-09-11T12:38:52.519Z,16.40
2022-09-11T12:41:25.303Z,16.30
2022-09-11T12:43:53.590Z,16.30
2022-09-11T12:46:20.613Z,16.40
2022-09-11T12:49:05.606Z,16.40
2022-09-11T12:51:51.038Z,16.30
2022-09-11T12:54:21.437Z,16.40
2022-09-11T12:57:07.721Z,16.60
2022-09-11T12:59:35.665Z,16.50
2022-09-11T13:02:02.824Z,16.60
2022-09-11T13:04:31.198Z,16.70
2022-09-11T13:06:59.075Z,16.80
2022-09-11T13:09:29.222Z,17.00
2022-09-11T13:11:56.750Z,17.10
2022-09-11T13:14:30.601Z,17.20
2022-09-11T13:16:58.393Z,17.20
2022-09-11T13:19:35.774Z,17.20
2022-09-11T13:22:02.833Z,17.30
2022-09-11T13:24:30.242Z,17.30
2022-09-11T13:27:07.447Z,17.20
2022-09-11T13:29:35.643Z,17.20
2022-09-11T13:32:12.430Z,17.20
2022-09-11T13:34:42.534Z,17.20
2022-09-11T13:37:10.637Z,17.20
2022-09-11T13:39:42.058Z,17.20
2022-09-11T13:42:11.715Z,17.20
2022-09-11T13:44:49.139Z,17.10
2022-09-11T13:47:16.141Z,17.10
2022-09-11T13:49:43.170Z,17.20
2022-09-11T13:52:10.362Z,17.20
2022-09-11T13:54:38.326Z,17.20
2022-09-11T13:57:10.351Z,17.10
2022-09-11T13:59:44.616Z,17.20
2022-09-11T14:02:24.273Z,17.00
2022-09-11T14:04:52.300Z,17.00
2022-09-11T14:07:20.770Z,17.00
2022-09-11T14:09:52.212Z,17.10
2022-09-11T14:12:20.266Z,17.10
2022-09-11T14:14:49.113Z,17.10
2022-09-11T14:17:17.183Z,17.10
2022-09-11T14:19:44.438Z,17.10
2022-09-11T14:22:15.783Z,17.20
2022-09-11T14:24:56.546Z,17.20
2022-09-11T14:27:36.494Z,17.20
2022-09-11T14:30:23.317Z,17.10
2022-09-11T14:33:05.499Z,17.00
2022-09-11T14:35:33.239Z,17.00
2022-09-11T14:38:00.269Z,17.00
2022-09-11T14:40:27.325Z,17.00
2022-09-11T14:42:54.323Z,17.10
2022-09-11T14:45:22.862Z,17.20
2022-09-11T14:47:50.211Z,17.20
2022-09-11T14:50:17.351Z,17.20
2022-09-11T14:52:44.363Z,17.30
2022-09-11T14:55:15.404Z,17.30
2022-09-11T14:57:42.509Z,17.30
2022-09-11T15:00:10.499Z,17.40
2022-09-11T15:02:37.579Z,17.40
2022-09-11T15:05:05.768Z,17.60
2022-09-11T15:07:35.352Z,17.70
2022-09-11T15:10:02.486Z,17.80
2022-09-11T15:12:30.191Z,18.00
2022-09-11T15:14:59.301Z,18.10
2022-09-11T15:17:31.246Z,18.00
2022-09-11T15:20:00.217Z,17.90
2022-09-11T15:22:27.522Z,17.80
2022-09-11T15:24:56.005Z,17.70
2022-09-11T15:27:25.047Z,17.60
2022-09-11T15:29:52.527Z,17.60
2022-09-11T15:32:21.095Z,17.50
2022-09-11T15:34:48.142Z,17.50
2022-09-11T15:37:16.847Z,17.40
2022-09-11T15:39:44.025Z,17.20
2022-09-11T15:42:11.286Z,17.10
2022-09-11T15:44:38.402Z,17.00
2022-09-11T15:47:06.183Z,17.00
2022-09-11T15:49:33.306Z,17.00
2022-09-11T15:52:00.353Z,17.00
2022-09-11T15:54:27.440Z,17.00
2022-09-11T15:56:54.570Z,16.90
2022-09-11T15:59:21.712Z,16.90
2022-09-11T16:01:48.816Z,16.90
2022-09-11T16:04:20.155Z,16.90
2022-09-11T16:06:48.314Z,16.80
2022-09-11T16:09:19.266Z,16.80
2022-09-11T16:11:47.733Z,16.80
2022-09-11T16:14:18.290Z,16.80
2022-09-11T16:16:48.477Z,16.80
2022-09-11T16:19:15.679Z,16.80
2022-09-11T16:21:43.085Z,16.80
2022-09-11T16:24:11.550Z,16.80
2022-09-11T16:26:38.782Z,17.00
2022-09-11T16:29:06.482Z,17.20
2022-09-11T16:31:33.745Z,17.50
2022-09-11T16:34:02.736Z,17.80
2022-09-11T16:36:31.002Z,17.70
2022-09-11T16:38:58.017Z,17.60
2022-09-11T16:41:25.474Z,17.40
2022-09-11T16:43:52.763Z,17.30
2022-09-11T16:46:20.810Z,17.30
2022-09-11T16:48:53.133Z,17.10
2022-09-11T16:51:21.189Z,17.00
2022-09-11T16:53:48.206Z,16.90
2022-09-11T16:56:16.156Z,16.90
2022-09-11T16:58:43.389Z,16.80
2022-09-11T17:01:11.532Z,16.80
2022-09-11T17:03:41.522Z,16.90
2022-09-11T17:06:08.750Z,17.00
2022-09-11T17:08:39.111Z,17.10
2022-09-11T17:11:07.335Z,17.20
2022-09-11T17:13:34.594Z,17.20
2022-09-11T17:16:05.131Z,17.10
2022-09-11T17:18:33.146Z,17.10
2022-09-11T17:21:02.892Z,17.10
2022-09-11T17:23:30.910Z,17.10
2022-09-11T17:25:57.915Z,17.00
2022-09-11T17:28:31.636Z,16.90
2022-09-11T17:31:02.579Z,16.80
2022-09-11T17:33:32.063Z,16.60
2022-09-11T17:35:59.602Z,16.50
2022-09-11T17:38:26.622Z,16.40
2022-09-11T17:40:57.799Z,16.40
2022-09-11T17:43:24.922Z,16.40
2022-09-11T17:45:52.270Z,16.40
2022-09-11T17:48:19.735Z,16.30
2022-09-11T17:50:47.319Z,16.20
2022-09-11T17:53:14.370Z,16.10
2022-09-11T17:55:42.269Z,16.00
2022-09-11T17:58:09.322Z,16.00
2022-09-11T18:00:36.375Z,15.90
2022-09-11T18:03:03.403Z,15.90
2022-09-11T18:05:30.423Z,15.90
2022-09-11T18:08:00.110Z,16.00
2022-09-11T18:10:27.641Z,16.00
2022-09-11T18:12:54.658Z,16.00
2022-09-11T18:15:21.694Z,15.90
2022-09-11T18:17:48.689Z,15.90
2022-09-11T18:20:17.587Z,15.80
2022-09-11T18:22:44.634Z,15.80
2022-09-11T18:25:11.699Z,15.70
2022-09-11T18:27:40.095Z,15.70
2022-09-11T18:30:07.582Z,15.70
2022-09-11T18:32:34.698Z,15.70
2022-09-11T18:35:04.346Z,15.70
2022-09-11T18:37:31.358Z,15.70
2022-09-11T18:39:59.523Z,15.70
2022-09-11T18:42:26.993Z,15.60
2022-09-11T18:44:53.999Z,15.60
2022-09-11T18:47:22.027Z,15.60
2022-09-11T18:49:50.961Z,15.60
2022-09-11T18:52:20.618Z,15.60
2022-09-11T18:54:49.740Z,15.60
2022-09-11T18:57:16.754Z,15.50
2022-09-11T18:59:44.122Z,15.50
2022-09-11T19:02:11.294Z,15.60
2022-09-11T19:04:38.930Z,15.60
2022-09-11T19:07:06.305Z,15.50
2022-09-11T19:09:33.306Z,15.50
2022-09-11T19:12:03.397Z,15.40
2022-09-11T19:14:30.975Z,15.30
2022-09-11T19:17:00.283Z,15.30
2022-09-11T19:19:27.583Z,15.20
2022-09-11T19:21:54.603Z,15.20
2022-09-11T19:24:22.527Z,15.20
2022-09-11T19:26:51.175Z,15.10
2022-09-11T19:29:21.123Z,15.10
2022-09-11T19:31:48.207Z,15.10
2022-09-11T19:34:16.841Z,15.00
2022-09-11T19:36:43.833Z,14.80
2022-09-11T19:39:10.903Z,14.70
2022-09-11T19:41:38.040Z,14.60
2022-09-11T19:44:05.714Z,14.60
2022-09-11T19:46:33.468Z,14.60
2022-09-11T19:49:02.999Z,14.60
2022-09-11T19:51:31.150Z,14.60
2022-09-11T19:54:00.188Z,14.50
2022-09-11T19:56:27.644Z,14.50
2022-09-11T19:58:54.925Z,14.50
2022-09-11T20:01:22.471Z,14.50
2022-09-11T20:03:49.951Z,14.50
2022-09-11T20:06:17.226Z,14.40
2022-09-11T20:08:45.362Z,14.20
2022-09-11T20:11:13.508Z,14.20
2022-09-11T20:13:40.730Z,14.30
2022-09-11T20:16:08.522Z,14.20
2022-09-11T20:18:36.077Z,14.10
2022-09-11T20:21:03.766Z,14.10
2022-09-11T20:23:30.757Z,14.00
2022-09-11T20:26:07.921Z,14.00
2022-09-11T20:28:35.348Z,13.90
2022-09-11T20:31:02.432Z,13.80
2022-09-11T20:33:29.461Z,13.80
2022-09-11T20:35:56.581Z,13.80
2022-09-11T20:38:23.574Z,13.80
2022-09-11T20:40:50.566Z,13.80
2022-09-11T20:43:17.573Z,13.80
2022-09-11T20:45:44.651Z,13.80
2022-09-11T20:48:11.678Z,13.80
2022-09-11T20:50:38.718Z,13.80
2022-09-11T20:53:05.734Z,13.70
2022-09-11T20:55:32.721Z,13.60
2022-09-11T20:58:00.527Z,13.50
2022-09-11T21:00:28.462Z,13.50
2022-09-11T21:02:55.586Z,13.50
2022-09-11T21:05:22.587Z,13.50
2022-09-11T21:07:49.617Z,13.50
2022-09-11T21:10:16.637Z,13.50
2022-09-11T21:12:43.646Z,13.50
2022-09-11T21:15:10.721Z,13.50
2022-09-11T21:17:37.716Z,13.50
2022-09-11T21:20:04.912Z,13.30
2022-09-11T21:22:31.922Z,13.20
2022-09-11T21:24:58.950Z,13.10
2022-09-11T21:27:25.970Z,13.00
2022-09-11T21:29:53.492Z,13.00
2022-09-11T21:32:20.511Z,13.00
2022-09-11T21:34:47.542Z,12.90
2022-09-11T21:37:14.562Z,12.90
2022-09-11T21:39:41.604Z,12.90
2022-09-11T21:42:11.767Z,13.00
2022-09-11T21:44:39.152Z,12.90
2022-09-11T21:47:06.194Z,12.80
2022-09-11T21:49:33.189Z,12.80
2022-09-11T21:52:00.193Z,12.80
2022-09-11T21:54:31.721Z,12.80
2022-09-11T21:56:58.965Z,12.90
2022-09-11T21:59:26.053Z,12.80
2022-09-11T22:01:53.372Z,12.90
2022-09-11T22:04:20.683Z,12.80
2022-09-11T22:06:47.697Z,12.80
2022-09-11T22:09:20.181Z,12.80
2022-09-11T22:11:47.662Z,12.80
2022-09-11T22:14:18.941Z,12.80
2022-09-11T22:16:46.082Z,12.80
2022-09-11T22:19:13.159Z,12.80
2022-09-11T22:21:40.831Z,12.70
2022-09-11T22:24:07.834Z,12.70
2022-09-11T22:26:34.835Z,12.70
2022-09-11T22:29:01.930Z,12.60
2022-09-11T22:31:29.050Z,12.70
2022-09-11T22:33:56.289Z,12.60
2022-09-11T22:36:24.622Z,12.60
2022-09-11T22:38:51.762Z,12.60
2022-09-11T22:41:18.821Z,12.50
2022-09-11T22:43:47.402Z,12.40
2022-09-11T22:46:15.208Z,12.40
2022-09-11T22:48:42.302Z,12.40
2022-09-11T22:51:09.586Z,12.50
2022-09-11T22:53:39.360Z,12.50
2022-09-11T22:56:06.550Z,12.50
2022-09-11T22:58:33.556Z,12.40
2022-09-11T23:01:00.974Z,12.50
2022-09-11T23:03:28.048Z,12.40
2022-09-11T23:06:16.371Z,12.40
2022-09-11T23:08:45.490Z,12.30
2022-09-11T23:11:15.105Z,12.30
2022-09-11T23:13:42.205Z,12.30
2022-09-11T23:16:13.136Z,12.30
2022-09-11T23:18:40.347Z,12.30
2022-09-11T23:21:07.351Z,12.20
2022-09-11T23:23:40.711Z,12.30
2022-09-11T23:26:08.478Z,12.30
2022-09-11T23:28:35.486Z,12.30
2022-09-11T23:31:02.832Z,12.30
2022-09-11T23:33:30.213Z,12.20
2022-09-11T23:35:57.223Z,12.10
2022-09-11T23:38:24.274Z,12.00
2022-09-11T23:40:51.554Z,12.00
2022-09-11T23:43:18.558Z,11.90
2022-09-11T23:45:45.594Z,12.00
2022-09-11T23:48:12.592Z,12.00
2022-09-11T23:50:40.806Z,12.00
2022-09-11T23:53:08.203Z,12.00
2022-09-11T23:55:36.395Z,11.80
2022-09-11T23:58:05.549Z,11.70
